createdAt,value
2018-04-24T00:08:35.134Z,0
2018-04-24T00:18:34.621Z,0
2018-04-24T00:28:34.717Z,0
2018-04-24T00:38:34.743Z,0
2018-04-24T00:48:34.676Z,0
2018-04-24T00:58:34.710Z,0
2018-04-24T01:08:34.771Z,0
2018-04-24T01:18:46.913Z,0
2018-04-24T01:28:43.621Z,0
2018-04-24T01:38:34.658Z,0
2018-04-24T01:48:34.725Z,0
2018-04-24T01:58:36.001Z,0
2018-04-24T02:08:34.687Z,0
2018-04-24T02:18:34.989Z,0
2018-04-24T02:28:34.764Z,0
2018-04-24T02:38:34.743Z,0
2018-04-24T02:48:34.825Z,0
2018-04-24T02:58:34.813Z,0
2018-04-24T03:08:34.844Z,0
2018-04-24T03:18:34.795Z,0
2018-04-24T03:28:34.794Z,0
2018-04-24T03:38:34.893Z,4
2018-04-24T03:48:34.796Z,8
2018-04-24T03:58:34.780Z,36
2018-04-24T04:08:34.852Z,116
2018-04-24T04:18:34.852Z,232
2018-04-24T04:28:34.897Z,352
2018-04-24T04:38:34.811Z,552
2018-04-24T04:48:34.972Z,700
2018-04-24T04:58:34.899Z,1256
2018-04-24T05:08:34.864Z,1108
2018-04-24T05:18:34.859Z,1392
2018-04-24T05:28:34.991Z,1900
2018-04-24T05:38:34.968Z,1940
2018-04-24T05:48:34.913Z,1900
2018-04-24T05:58:34.976Z,3520
2018-04-24T06:08:35.008Z,2872
2018-04-24T06:18:35.004Z,3036
2018-04-24T06:28:35.036Z,3512
2018-04-24T06:38:35.037Z,3300
2018-04-24T06:48:35.839Z,5064
2018-04-24T06:58:34.948Z,6672
2018-04-24T07:08:35.049Z,5800
2018-04-24T07:18:35.028Z,7644
2018-04-24T07:28:35.219Z,5204
2018-04-24T07:38:36.288Z,8708
2018-04-24T07:48:35.748Z,9260
2018-04-24T07:58:35.132Z,9208
2018-04-24T08:08:35.178Z,6244
2018-04-24T08:18:35.083Z,8084
2018-04-24T08:28:35.051Z,6648
2018-04-24T08:38:35.684Z,9312
2018-04-24T08:48:35.716Z,8988
2018-04-24T08:58:35.257Z,13760
2018-04-24T09:08:35.237Z,13612
2018-04-24T09:18:35.537Z,10068
2018-04-24T09:28:35.129Z,12528
2018-04-24T09:38:35.320Z,16864
2018-04-24T09:48:35.130Z,9560
2018-04-24T09:58:35.151Z,7908
2018-04-24T10:08:36.079Z,9336
2018-04-24T10:18:35.182Z,11300
2018-04-24T10:28:35.164Z,9068
2018-04-24T10:38:35.302Z,9236
2018-04-24T10:48:35.291Z,10072
2018-04-24T10:58:35.285Z,12484
2018-04-24T11:08:35.191Z,13408
2018-04-24T11:18:35.236Z,18012
2018-04-24T11:28:35.312Z,15320
2018-04-24T11:38:35.426Z,15436
2018-04-24T11:48:35.259Z,11748
2018-04-24T11:58:35.320Z,8276
2018-04-24T12:08:35.449Z,16140
2018-04-24T12:18:35.464Z,14696
2018-04-24T12:28:35.292Z,11876
2018-04-24T12:38:35.304Z,10844
2018-04-24T12:48:35.451Z,7312
2018-04-24T12:58:35.541Z,7424
2018-04-24T13:08:35.439Z,6664
2018-04-24T13:18:35.540Z,6164
2018-04-24T13:28:35.405Z,5628
2018-04-24T13:38:35.372Z,3680
2018-04-24T13:48:35.415Z,4056
2018-04-24T13:58:35.370Z,4756
2018-04-24T14:08:35.383Z,5564
2018-04-24T14:18:35.466Z,5528
2018-04-24T14:28:36.337Z,4280
2018-04-24T14:38:35.543Z,7136
2018-04-24T14:48:35.687Z,6480
2018-04-24T14:58:35.455Z,8376
2018-04-24T15:08:35.469Z,7260
2018-04-24T15:18:35.465Z,8224
2018-04-24T15:28:35.485Z,9032
2018-04-24T15:38:35.609Z,8092
2018-04-24T15:48:35.521Z,9996
2018-04-24T15:58:35.673Z,8880
2018-04-24T16:08:35.501Z,9040
2018-04-24T16:18:35.518Z,7120
2018-04-24T16:28:36.206Z,6032
2018-04-24T16:38:35.577Z,6288
2018-04-24T16:48:35.656Z,4976
2018-04-24T16:58:35.602Z,4576
2018-04-24T17:08:35.545Z,4036
2018-04-24T17:18:35.699Z,3068
2018-04-24T17:28:35.932Z,2540
2018-04-24T17:38:36.122Z,1852
2018-04-24T17:48:36.073Z,900
2018-04-24T17:58:35.748Z,912
2018-04-24T18:08:35.894Z,440
2018-04-24T18:18:35.675Z,560
2018-04-24T18:28:35.744Z,196
2018-04-24T18:38:35.714Z,116
2018-04-24T18:48:36.384Z,40
2018-04-24T18:58:35.812Z,20
2018-04-24T19:08:35.710Z,4
2018-04-24T19:19:00.514Z,0
2018-04-24T19:28:35.740Z,0
2018-04-24T19:38:35.725Z,0
2018-04-24T19:48:35.778Z,0
2018-04-24T19:58:35.788Z,0
2018-04-24T20:08:35.740Z,0
2018-04-24T20:18:35.900Z,0
2018-04-24T20:28:35.830Z,0
2018-04-24T20:38:35.856Z,0
2018-04-24T20:48:35.752Z,0
2018-04-24T20:58:36.402Z,0
2018-04-24T21:08:35.894Z,0
2018-04-24T21:18:35.831Z,0
2018-04-24T21:28:36.140Z,0
2018-04-24T21:38:35.814Z,0
2018-04-24T21:48:35.857Z,0
2018-04-24T21:58:36.036Z,0
2018-04-24T22:08:36.247Z,0
2018-04-24T22:18:36.310Z,0
2018-04-24T22:28:35.833Z,0
2018-04-24T22:38:35.874Z,0
2018-04-24T22:48:36.106Z,0
2018-04-24T22:58:35.973Z,0
2018-04-24T23:08:35.860Z,0
2018-04-24T23:18:35.868Z,0
2018-04-24T23:28:35.897Z,0
2018-04-24T23:38:35.894Z,0
2018-04-24T23:48:35.955Z,0
2018-04-24T23:58:35.935Z,0
